Time;durP1;ratioP1;P1;durP2;ratioP2;P2;SDS_P1;SDS_P2;PMS_P1;PMS_P2;Temp;Humidity;BMP_temperature;BMP_pressure;BME280_temperature;BME280_humidity;BME280_pressure;Samples;Min_cycle;Max_cycle;Signal;HPM_P1;HPM_P2
2022/03/11 00:01:59;;;;;;;;;;;;;;;0.01;59.18;101398.53;4425248;32;19982;-86
2022/03/11 00:04:25;;;;;;;;;;;;;;;-0.01;59.17;101395.00;4438265;32;19990;-86
2022/03/11 00:06:50;;;;;;;;;;;;;;;0.07;59.17;101391.06;4424640;32;29332;-85
2022/03/11 00:09:15;;;;;;;;;;;;;;;-0.07;59.18;101400.78;4437920;32;20009;-83
2022/03/11 00:11:40;;;;;;;;;;;;;;;-0.08;59.17;101393.91;4424856;32;22552;-86
2022/03/11 00:14:06;;;;;;;;;;;;;;;0.02;59.18;101392.59;4425273;32;19978;-85
2022/03/11 00:16:32;;;;;;;;;;;;;;;-0.18;59.17;101393.53;4425267;32;20044;-85
2022/03/11 00:18:57;;;;;;;;;;;;;;;-0.25;59.16;101402.63;4438253;32;20000;-85
2022/03/11 00:21:22;;;;;;;;;;;;;;;-0.14;59.17;101397.94;4425305;32;19981;-86
2022/03/11 00:23:48;;;;;;;;;;;;;;;-0.17;59.17;101402.97;4424185;32;34527;-86
2022/03/11 00:26:13;;;;;;;;;;;;;;;-0.22;59.16;101394.25;4438067;32;20012;-86
2022/03/11 00:28:38;;;;;;;;;;;;;;;-0.15;59.16;101399.63;4425459;32;19985;-85
2022/03/11 00:31:06;;;;;;;;;;;;;;;-0.08;59.17;101391.38;4439530;32;19989;-85
2022/03/11 00:33:31;;;;;;;;;;;;;;;-0.03;59.17;101399.19;4438676;32;19982;-85
2022/03/11 00:35:57;;;;;;;;;;;;;;;-0.01;59.17;101397.56;4425422;32;20040;-85
2022/03/11 00:38:22;;;;;;;;;;;;;;;0.04;59.18;101401.19;4439445;32;20115;-85
2022/03/11 00:40:47;;;;;;;;;;;;;;;-0.02;59.17;101390.72;4438035;32;19985;-84
2022/03/11 00:43:12;;;;;;;;;;;;;;;0.03;59.18;101399.47;4425088;32;20526;-85
2022/03/11 00:45:38;;;;;;;;;;;;;;;0.16;59.18;101386.25;4439177;32;20022;-85
2022/03/11 00:48:03;;;;;;;;;;;;;;;0.14;59.18;101390.47;4438873;32;21074;-85
2022/03/11 00:50:28;;;;;;;;;;;;;;;0.16;59.19;101390.50;4437848;32;20015;-85
2022/03/11 00:52:53;;;;;;;;;;;;;;;0.23;59.19;101389.91;4438525;32;21580;-86
2022/03/11 00:55:19;;;;;;;;;;;;;;;0.09;59.17;101391.12;4425091;32;20008;-86
2022/03/11 00:57:44;;;;;;;;;;;;;;;0.08;59.19;101385.13;4425047;32;19996;-85
2022/03/11 01:00:10;;;;;;;;;;;;;;;0.16;59.19;101391.38;4425054;32;20325;-86
2022/03/11 01:02:35;;;;;;;;;;;;;;;0.19;59.18;101394.06;4437862;32;19997;-85
2022/03/11 01:05:01;;;;;;;;;;;;;;;0.16;59.19;101382.84;4437881;32;19982;-86
2022/03/11 01:07:26;;;;;;;;;;;;;;;-0.02;59.17;101380.47;4424668;32;20000;-86
2022/03/11 01:09:52;;;;;;;;;;;;;;;-0.15;59.16;101391.09;4437435;32;19977;-86
2022/03/11 01:12:18;;;;;;;;;;;;;;;0.13;59.18;101390.41;4444861;32;20001;-87
2022/03/11 01:14:43;;;;;;;;;;;;;;;0.04;59.18;101390.97;4427507;32;20285;-87
2022/03/11 01:17:11;;;;;;;;;;;;;;;0.11;59.18;101399.72;4427592;32;20008;-87
2022/03/11 01:19:36;;;;;;;;;;;;;;;0.04;59.17;101388.41;4440427;32;19977;-88
2022/03/11 01:22:01;;;;;;;;;;;;;;;-0.05;59.17;101381.22;4427491;32;20019;-88
2022/03/11 01:24:26;;;;;;;;;;;;;;;-0.03;59.17;101387.28;4440652;32;19993;-88
2022/03/11 01:26:52;;;;;;;;;;;;;;;0.24;59.19;101391.69;4454868;32;20044;-84
2022/03/11 01:29:17;;;;;;;;;;;;;;;-0.01;59.17;101389.87;4454657;32;19977;-83
2022/03/11 01:31:43;;;;;;;;;;;;;;;-0.09;59.16;101389.63;4440328;32;20009;-85
2022/03/11 01:34:08;;;;;;;;;;;;;;;-0.12;59.17;101389.50;4454772;32;19976;-85
2022/03/11 01:36:33;;;;;;;;;;;;;;;-0.10;59.17;101392.13;4454960;32;20250;-84
2022/03/11 01:38:59;;;;;;;;;;;;;;;-0.11;59.17;101386.13;4440616;32;20016;-84
2022/03/11 01:41:24;;;;;;;;;;;;;;;-0.12;59.17;101383.53;4454761;32;20049;-84
2022/03/11 01:43:50;;;;;;;;;;;;;;;-0.30;59.16;101378.56;4454821;32;20005;-84
2022/03/11 01:46:15;;;;;;;;;;;;;;;-0.09;59.17;101369.16;4440607;32;20011;-83
2022/03/11 01:48:40;;;;;;;;;;;;;;;-0.24;59.16;101376.25;4440347;32;20549;-84
2022/03/11 01:51:05;;;;;;;;;;;;;;;-0.21;59.17;101378.94;4454152;32;23639;-84
2022/03/11 01:53:31;;;;;;;;;;;;;;;-0.28;59.16;101378.63;4440056;32;25218;-84
2022/03/11 01:55:56;;;;;;;;;;;;;;;-0.11;59.17;101377.59;4427424;32;19981;-83
2022/03/11 01:58:21;;;;;;;;;;;;;;;-0.20;59.17;101388.38;4427391;32;19982;-83
2022/03/11 02:00:47;;;;;;;;;;;;;;;-0.18;59.16;101370.50;4440317;32;19992;-83
2022/03/11 02:03:12;;;;;;;;;;;;;;;-0.05;59.18;101377.81;4454307;32;19977;-84
2022/03/11 02:05:37;;;;;;;;;;;;;;;-0.07;59.16;101376.88;4439060;32;19997;-83
2022/03/11 02:08:02;;;;;;;;;;;;;;;-0.16;59.16;101379.97;4440174;32;19973;-84
2022/03/11 02:10:30;;;;;;;;;;;;;;;-0.21;59.16;101380.62;4454154;32;20003;-84
2022/03/11 02:12:55;;;;;;;;;;;;;;;-0.06;59.17;101382.03;4440052;32;20019;-86
2022/03/11 02:15:20;;;;;;;;;;;;;;;-0.07;59.18;101375.19;4440261;32;19993;-87
2022/03/11 02:17:45;;;;;;;;;;;;;;;-0.20;59.17;101372.13;4440102;32;19997;-88
2022/03/11 02:20:11;;;;;;;;;;;;;;;-0.28;59.16;101374.38;4427372;32;20302;-87
2022/03/11 02:22:37;;;;;;;;;;;;;;;-0.23;59.16;101382.25;4440191;32;19977;-87
2022/03/11 02:25:04;;;;;;;;;;;;;;;-0.32;59.16;101381.06;4427208;32;19992;-87
2022/03/11 02:27:33;;;;;;;;;;;;;;;-0.39;59.15;101388.47;4440069;32;19974;-87
2022/03/11 02:29:58;;;;;;;;;;;;;;;-0.34;59.16;101390.38;4427248;32;19981;-87
2022/03/11 02:32:23;;;;;;;;;;;;;;;-0.46;59.15;101389.06;4439868;32;20360;-88
2022/03/11 02:34:49;;;;;;;;;;;;;;;-0.36;59.15;101391.16;4440138;32;20232;-88
2022/03/11 02:37:14;;;;;;;;;;;;;;;-0.23;59.16;101382.25;4454168;32;20037;-88
2022/03/11 02:39:39;;;;;;;;;;;;;;;-0.24;59.16;101386.47;4427288;32;20011;-88
2022/03/11 02:42:05;;;;;;;;;;;;;;;-0.44;59.15;101377.19;4440118;32;20024;-87
2022/03/11 02:44:31;;;;;;;;;;;;;;;-0.34;59.16;101392.94;4426976;32;20008;-87
2022/03/11 02:46:59;;;;;;;;;;;;;;;-0.28;59.16;101379.50;4427116;32;20328;-87
2022/03/11 02:49:24;;;;;;;;;;;;;;;-0.27;59.17;101375.25;4440337;32;19977;-87
2022/03/11 02:51:49;;;;;;;;;;;;;;;-0.31;59.16;101372.59;4453917;32;20041;-87
2022/03/11 02:54:15;;;;;;;;;;;;;;;-0.42;59.15;101381.56;4439804;32;20020;-86
2022/03/11 02:56:40;;;;;;;;;;;;;;;-0.59;59.14;101389.37;4453984;32;19988;-85
2022/03/11 02:59:05;;;;;;;;;;;;;;;-0.55;59.14;101387.00;4439277;32;21768;-84
2022/03/11 03:01:32;;;;;;;;;;;;;;;-0.50;59.15;101390.59;4439611;32;20019;-85
2022/03/11 03:03:57;;;;;;;;;;;;;;;-0.72;59.14;101391.44;4439951;32;20027;-85
2022/03/11 03:06:22;;;;;;;;;;;;;;;-0.69;59.14;101385.59;4439662;32;20314;-85
2022/03/11 03:08:47;;;;;;;;;;;;;;;-0.59;59.14;101382.59;4439576;32;20005;-87
2022/03/11 03:11:13;;;;;;;;;;;;;;;-0.52;59.14;101384.56;4439681;32;19996;-86
2022/03/11 03:13:38;;;;;;;;;;;;;;;-0.59;59.14;101386.81;4453845;32;19981;-86
2022/03/11 03:16:03;;;;;;;;;;;;;;;-0.67;59.13;101392.53;4426256;32;20060;-85
2022/03/11 03:18:30;;;;;;;;;;;;;;;-0.46;59.15;101379.69;4438529;32;19991;-86
2022/03/11 03:20:55;;;;;;;;;;;;;;;-0.55;59.14;101383.56;4439471;32;20015;-86
2022/03/11 03:23:20;;;;;;;;;;;;;;;-0.60;59.14;101378.28;4426686;32;19993;-87
2022/03/11 03:25:45;;;;;;;;;;;;;;;-0.69;59.13;101390.72;4426506;32;19988;-86
2022/03/11 03:28:12;;;;;;;;;;;;;;;-0.70;59.13;101388.97;4439401;32;20322;-87
2022/03/11 03:30:37;;;;;;;;;;;;;;;-0.75;59.13;101387.88;4426758;32;20001;-86
2022/03/11 03:33:02;;;;;;;;;;;;;;;-1.06;59.11;101384.09;4439428;32;19993;-86
2022/03/11 03:35:27;;;;;;;;;;;;;;;-0.94;59.12;101381.19;4426516;32;19981;-87
2022/03/11 03:37:53;;;;;;;;;;;;;;;-0.94;59.12;101374.41;4439354;32;19978;-87
2022/03/11 03:40:18;;;;;;;;;;;;;;;-0.93;59.12;101371.03;4452805;32;23004;-85
2022/03/11 03:42:46;;;;;;;;;;;;;;;-1.12;59.11;101385.53;4438484;32;26086;-86
2022/03/11 03:45:11;;;;;;;;;;;;;;;-1.08;59.12;101380.62;4439259;32;20004;-85
2022/03/11 03:47:37;;;;;;;;;;;;;;;-1.08;59.12;101385.72;4453091;32;19977;-86
2022/03/11 03:50:02;;;;;;;;;;;;;;;-1.08;59.12;101387.41;4438754;32;20019;-85
2022/03/11 03:52:28;;;;;;;;;;;;;;;-1.10;59.10;101387.34;4438960;32;20046;-85
2022/03/11 03:54:54;;;;;;;;;;;;;;;-1.25;59.09;101382.47;4439141;32;19985;-85
2022/03/11 03:57:19;;;;;;;;;;;;;;;-1.11;59.11;101375.38;4439097;32;19973;-86
2022/03/11 03:59:44;;;;;;;;;;;;;;;-1.17;59.10;101384.50;4425581;32;20483;-85
2022/03/11 04:02:09;;;;;;;;;;;;;;;-1.13;59.11;101391.47;4425385;32;20301;-84
2022/03/11 04:04:35;;;;;;;;;;;;;;;-1.37;59.10;101392.19;4453062;32;20031;-84
2022/03/11 04:07:00;;;;;;;;;;;;;;;-1.32;59.09;101394.94;4438112;32;30186;-84
2022/03/11 04:09:25;;;;;;;;;;;;;;;-1.45;59.08;101397.75;4452260;32;29443;-84
2022/03/11 04:11:50;;;;;;;;;;;;;;;-1.53;59.08;101399.13;4438622;32;20004;-85
2022/03/11 04:14:15;;;;;;;;;;;;;;;-1.34;59.09;101396.56;4425727;32;20000;-85
2022/03/11 04:16:41;;;;;;;;;;;;;;;-1.29;59.10;101408.69;4439068;32;19984;-83
2022/03/11 04:19:06;;;;;;;;;;;;;;;-1.55;59.08;101401.62;4426016;32;19992;-83
2022/03/11 04:21:31;;;;;;;;;;;;;;;-1.53;59.08;101411.88;4425661;32;19985;-83
2022/03/11 04:23:57;;;;;;;;;;;;;;;-1.44;59.09;101410.59;4438241;32;19982;-83
2022/03/11 04:26:22;;;;;;;;;;;;;;;-1.60;59.09;101411.62;4438615;32;20008;-84
2022/03/11 04:28:47;;;;;;;;;;;;;;;-1.64;59.08;101416.53;4439528;32;20030;-84
2022/03/11 04:31:12;;;;;;;;;;;;;;;-1.69;59.07;101416.31;4440186;32;28493;-83
2022/03/11 04:33:39;;;;;;;;;;;;;;;-1.84;59.06;101413.13;4455173;32;19988;-84
2022/03/11 04:36:05;;;;;;;;;;;;;;;-1.92;59.06;101415.28;4440891;32;20016;-84
2022/03/11 04:38:30;;;;;;;;;;;;;;;-2.11;59.05;101420.41;4440966;32;20249;-84
2022/03/11 04:40:55;;;;;;;;;;;;;;;-1.82;59.07;101419.16;4454995;32;20030;-83
2022/03/11 04:43:22;;;;;;;;;;;;;;;-2.01;59.06;101416.56;4440800;32;19995;-84
2022/03/11 04:45:47;;;;;;;;;;;;;;;-2.08;59.05;101417.13;4454919;32;19969;-85
2022/03/11 04:48:12;;;;;;;;;;;;;;;-2.17;59.05;101420.97;4427779;32;20360;-85
2022/03/11 04:50:38;;;;;;;;;;;;;;;-2.49;59.03;101424.59;4427540;32;20293;-84
2022/03/11 04:53:03;;;;;;;;;;;;;;;-2.54;59.03;101431.16;4454784;32;20005;-84
2022/03/11 04:55:28;;;;;;;;;;;;;;;-2.39;59.03;101438.62;4440636;32;19989;-84
2022/03/11 04:57:53;;;;;;;;;;;;;;;-2.32;59.04;101443.22;4440630;32;20008;-83
2022/03/11 05:00:18;;;;;;;;;;;;;;;-2.47;59.03;101437.41;4439926;32;19993;-83
2022/03/11 05:02:47;;;;;;;;;;;;;;;-2.41;59.03;101431.72;4427500;32;20056;-83
2022/03/11 05:05:12;;;;;;;;;;;;;;;-2.45;59.03;101430.69;4454554;32;19985;-83
2022/03/11 05:07:37;;;;;;;;;;;;;;;-2.49;59.03;101431.34;4440495;32;20463;-84
2022/03/11 05:10:03;;;;;;;;;;;;;;;-2.47;59.03;101433.19;4440187;32;20286;-83
2022/03/11 05:12:29;;;;;;;;;;;;;;;-2.47;59.03;101435.72;4440127;32;19983;-83
2022/03/11 05:14:54;;;;;;;;;;;;;;;-2.35;59.03;101435.44;4440443;32;20274;-85
2022/03/11 05:17:19;;;;;;;;;;;;;;;-2.45;59.03;101440.91;4440226;32;20016;-85
2022/03/11 05:19:45;;;;;;;;;;;;;;;-2.65;59.01;101442.50;4427589;32;20020;-86
2022/03/11 05:22:11;;;;;;;;;;;;;;;-2.62;59.01;101444.31;4440181;32;19978;-84
2022/03/11 05:24:36;;;;;;;;;;;;;;;-2.46;59.03;101441.69;4427710;32;19985;-84
2022/03/11 05:27:02;;;;;;;;;;;;;;;-2.65;59.02;101442.50;4440435;32;20467;-84
2022/03/11 05:29:28;;;;;;;;;;;;;;;-2.43;59.03;101438.41;4454662;32;20045;-85
2022/03/11 05:31:53;;;;;;;;;;;;;;;-2.49;59.03;101439.00;4440230;32;19993;-85
2022/03/11 05:34:18;;;;;;;;;;;;;;;-2.47;59.03;101443.37;4426986;32;21957;-85
2022/03/11 05:36:43;;;;;;;;;;;;;;;-2.40;59.03;101449.63;4439794;32;25372;-84
2022/03/11 05:39:09;;;;;;;;;;;;;;;-2.28;59.03;101445.12;4440688;32;20012;-84
2022/03/11 05:41:34;;;;;;;;;;;;;;;-2.18;59.04;101449.84;4453812;32;19976;-84
2022/03/11 05:43:59;;;;;;;;;;;;;;;-2.12;59.04;101456.06;4440259;32;20003;-83
2022/03/11 05:46:24;;;;;;;;;;;;;;;-2.01;59.05;101454.84;4454144;32;23733;-84
2022/03/11 05:48:49;;;;;;;;;;;;;;;-1.91;59.06;101457.00;4454827;32;19999;-84
2022/03/11 05:51:15;;;;;;;;;;;;;;;-1.81;59.07;101461.75;4439374;32;34930;-84
2022/03/11 05:53:40;;;;;;;;;;;;;;;-1.76;59.06;101455.16;4453797;32;32181;-85
2022/03/11 05:56:05;;;;;;;;;;;;;;;-1.68;59.07;101455.50;4440243;32;20024;-84
2022/03/11 05:58:30;;;;;;;;;;;;;;;-1.71;59.08;101457.91;4440255;32;19985;-84
2022/03/11 06:00:56;;;;;;;;;;;;;;;-1.31;59.10;101456.31;4454102;32;19987;-84
2022/03/11 06:03:21;;;;;;;;;;;;;;;-1.16;59.11;101457.78;4439989;32;20228;-83
2022/03/11 06:05:46;;;;;;;;;;;;;;;-0.90;59.12;101466.53;4439796;32;20000;-84
2022/03/11 06:08:11;;;;;;;;;;;;;;;-0.77;59.13;101469.66;4439799;32;20262;-84
2022/03/11 06:10:37;;;;;;;;;;;;;;;-0.75;59.13;101468.03;4427049;32;20012;-85
2022/03/11 06:13:02;;;;;;;;;;;;;;;-0.54;59.14;101478.25;4454228;32;19994;-85
2022/03/11 06:15:27;;;;;;;;;;;;;;;-0.46;59.15;101481.16;4439773;32;20011;-84
2022/03/11 06:17:54;;;;;;;;;;;;;;;-0.31;59.16;101474.06;4454230;32;19977;-84
2022/03/11 06:20:19;;;;;;;;;;;;;;;-0.23;59.16;101474.37;4439838;32;20435;-84
2022/03/11 06:22:52;;;;;;;;;;;;;;;-0.03;59.17;101470.87;4454023;32;19993;-84
2022/03/11 06:25:17;;;;;;;;;;;;;;;0.08;59.19;101473.87;4454174;32;19973;-84
2022/03/11 06:27:43;;;;;;;;;;;;;;;0.15;59.18;101473.28;4439881;32;20003;-84
2022/03/11 06:30:08;;;;;;;;;;;;;;;0.24;59.19;101471.94;4453937;32;19973;-84
2022/03/11 06:32:41;;;;;;;;;;;;;;;0.25;59.19;101477.94;4440035;32;19981;-84
2022/03/11 06:35:06;;;;;;;;;;;;;;;0.34;59.19;101474.84;4439931;32;20023;-84
2022/03/11 06:37:33;;;;;;;;;;;;;;;0.41;59.20;101476.78;4439998;32;19989;-84
2022/03/11 06:39:59;;;;;;;;;;;;;;;0.32;59.20;101476.47;4454077;32;19989;-85
2022/03/11 06:42:24;;;;;;;;;;;;;;;0.39;59.20;101478.44;4454114;32;19988;-84
2022/03/11 06:44:49;;;;;;;;;;;;;;;0.41;59.20;101480.22;4439469;32;20315;-84
2022/03/11 06:47:14;;;;;;;;;;;;;;;0.36;59.19;101480.87;4439809;32;20613;-84
2022/03/11 06:49:40;;;;;;;;;;;;;;;0.35;59.19;101476.56;4439442;32;20034;-84
2022/03/11 06:52:05;;;;;;;;;;;;;;;0.21;59.18;101478.63;4453381;32;20053;-84
2022/03/11 06:54:30;;;;;;;;;;;;;;;0.36;59.19;101481.75;4453921;32;19997;-84
2022/03/11 06:56:56;;;;;;;;;;;;;;;0.64;59.21;101487.87;4426949;32;20028;-83
2022/03/11 06:59:21;;;;;;;;;;;;;;;0.55;59.20;101486.75;4426998;32;20306;-84
2022/03/11 07:01:46;;;;;;;;;;;;;;;0.48;59.20;101494.16;4453733;32;20007;-85
2022/03/11 07:04:11;;;;;;;;;;;;;;;0.51;59.20;101489.12;4439029;32;29299;-85
2022/03/11 07:06:36;;;;;;;;;;;;;;;0.56;59.21;101483.34;4453883;32;20042;-84
2022/03/11 07:09:02;;;;;;;;;;;;;;;0.69;59.22;101491.47;4453531;32;19969;-84
2022/03/11 07:11:27;;;;;;;;;;;;;;;0.67;59.22;101485.41;4439550;32;20440;-85
2022/03/11 07:13:52;;;;;;;;;;;;;;;0.70;59.22;101493.22;4439694;32;20004;-85
2022/03/11 07:16:17;;;;;;;;;;;;;;;0.74;59.22;101498.53;4426974;32;20298;-85
2022/03/11 07:18:43;;;;;;;;;;;;;;;0.65;59.21;101484.50;4453886;32;20071;-85
2022/03/11 07:21:08;;;;;;;;;;;;;;;0.67;59.21;101483.72;4439743;32;19973;-85
2022/03/11 07:23:33;;;;;;;;;;;;;;;0.77;59.22;101484.94;4454047;32;19981;-84
2022/03/11 07:25:59;;;;;;;;;;;;;;;0.86;59.22;101488.69;4439258;32;19988;-84
2022/03/11 07:28:27;;;;;;;;;;;;;;;0.83;59.22;101488.59;4439741;32;20261;-85
2022/03/11 07:30:52;;;;;;;;;;;;;;;1.09;59.23;101480.91;4439996;32;19985;-85
2022/03/11 07:33:17;;;;;;;;;;;;;;;1.12;59.24;101489.59;4439643;32;20325;-85
2022/03/11 07:35:42;;;;;;;;;;;;;;;1.14;59.24;101492.19;4439565;32;20007;-86
2022/03/11 07:38:08;;;;;;;;;;;;;;;1.30;59.25;101488.47;4439569;32;19973;-85
2022/03/11 07:40:33;;;;;;;;;;;;;;;1.29;59.25;101489.28;4439469;32;19980;-85
2022/03/11 07:42:58;;;;;;;;;;;;;;;1.24;59.24;101491.72;4452991;32;24092;-85
2022/03/11 07:45:24;;;;;;;;;;;;;;;1.18;59.23;101494.03;4453773;32;20325;-86
2022/03/11 07:47:49;;;;;;;;;;;;;;;1.22;59.24;101480.53;4439384;32;20276;-85
2022/03/11 07:50:14;;;;;;;;;;;;;;;1.41;59.26;101484.56;4438681;32;30349;-84
2022/03/11 07:52:40;;;;;;;;;;;;;;;1.37;59.25;101495.53;4439457;32;19989;-84
2022/03/11 07:55:06;;;;;;;;;;;;;;;1.36;59.26;101486.09;4426235;32;20017;-85
2022/03/11 07:57:32;;;;;;;;;;;;;;;1.54;59.26;101484.13;4439089;32;19988;-86
2022/03/11 07:59:57;;;;;;;;;;;;;;;1.66;59.27;101481.97;4438875;32;20242;-84
2022/03/11 08:02:22;;;;;;;;;;;;;;;1.66;59.27;101491.37;4439092;32;20035;-86
2022/03/11 08:04:47;;;;;;;;;;;;;;;1.70;59.27;101490.66;4454882;32;19999;-84
2022/03/11 08:07:13;;;;;;;;;;;;;;;1.75;59.27;101500.22;4440176;32;29473;-85
2022/03/11 08:09:43;;;;;;;;;;;;;;;1.51;59.26;101491.75;4440672;32;20007;-85
2022/03/11 08:12:08;;;;;;;;;;;;;;;1.80;59.28;101488.41;4455344;32;20256;-84
2022/03/11 08:14:33;;;;;;;;;;;;;;;1.80;59.28;101492.66;4455274;32;19996;-85
2022/03/11 08:16:58;;;;;;;;;;;;;;;1.89;59.28;101492.94;4428078;32;19985;-85
2022/03/11 08:19:24;;;;;;;;;;;;;;;1.71;59.28;101489.81;4427944;32;20023;-86
2022/03/11 08:21:50;;;;;;;;;;;;;;;1.91;59.28;101491.31;4441066;32;20669;-85
2022/03/11 08:24:15;;;;;;;;;;;;;;;2.10;59.29;101478.19;4441123;32;20001;-84
2022/03/11 08:26:40;;;;;;;;;;;;;;;2.13;59.30;101486.00;4428013;32;20337;-84
2022/03/11 08:29:06;;;;;;;;;;;;;;;1.87;59.29;101486.88;4440990;32;20351;-85
2022/03/11 08:31:32;;;;;;;;;;;;;;;2.10;59.29;101483.31;4440842;32;20326;-85
2022/03/11 08:33:57;;;;;;;;;;;;;;;2.12;59.29;101489.38;4455089;32;20032;-85
2022/03/11 08:36:23;;;;;;;;;;;;;;;2.30;59.31;101473.63;4440421;32;26161;-85
2022/03/11 08:38:48;;;;;;;;;;;;;;;2.33;59.31;101467.72;4428029;32;19987;-85
2022/03/11 08:41:13;;;;;;;;;;;;;;;2.51;59.33;101475.94;4427930;32;19993;-86
2022/03/11 08:43:40;;;;;;;;;;;;;;;2.57;59.32;101463.25;4440859;32;19993;-85
2022/03/11 08:46:09;;;;;;;;;;;;;;;2.72;59.33;101462.81;4428149;32;19992;-85
2022/03/11 08:48:35;;;;;;;;;;;;;;;2.81;59.35;101470.78;4455174;32;20000;-86
2022/03/11 08:51:00;;;;;;;;;;;;;;;2.77;59.34;101462.12;4440823;32;20021;-85
2022/03/11 08:53:25;;;;;;;;;;;;;;;2.70;59.33;101464.50;4427862;32;20079;-86
2022/03/11 08:55:50;;;;;;;;;;;;;;;2.80;59.33;101468.16;4427859;32;20001;-85
2022/03/11 08:58:16;;;;;;;;;;;;;;;2.98;59.35;101463.53;4440403;32;19984;-84
2022/03/11 09:00:41;;;;;;;;;;;;;;;2.94;59.34;101451.41;4454946;32;20033;-86
2022/03/11 09:03:06;;;;;;;;;;;;;;;3.13;59.35;101451.06;4440799;32;20038;-85
2022/03/11 09:05:33;;;;;;;;;;;;;;;3.12;59.36;101449.31;4440677;32;19984;-86
2022/03/11 09:07:59;;;;;;;;;;;;;;;3.18;59.36;101441.75;4454928;32;20057;-86
2022/03/11 09:10:24;;;;;;;;;;;;;;;3.29;59.36;101452.28;4427863;32;19997;-86
2022/03/11 09:12:49;;;;;;;;;;;;;;;3.38;59.36;101448.25;4454904;32;19995;-85
2022/03/11 09:15:15;;;;;;;;;;;;;;;3.35;59.37;101449.91;4454847;32;20033;-85
2022/03/11 09:17:40;;;;;;;;;;;;;;;3.50;59.38;101447.66;4440576;32;19992;-85
2022/03/11 09:20:06;;;;;;;;;;;;;;;3.67;59.38;101433.50;4440441;32;20040;-86
2022/03/11 09:22:31;;;;;;;;;;;;;;;3.92;59.41;101432.34;4427676;32;20027;-84
2022/03/11 09:24:57;;;;;;;;;;;;;;;3.73;59.39;101429.31;4454889;32;19981;-85
2022/03/11 09:27:23;;;;;;;;;;;;;;;3.62;59.39;101422.22;4427759;32;20036;-85
2022/03/11 09:29:49;;;;;;;;;;;;;;;3.65;59.39;101424.88;4440348;32;19993;-85
2022/03/11 09:32:14;;;;;;;;;;;;;;;3.43;59.37;101420.06;4427570;32;19996;-85
2022/03/11 09:34:40;;;;;;;;;;;;;;;3.72;59.39;101423.28;4454066;32;25947;-85
2022/03/11 09:37:06;;;;;;;;;;;;;;;4.02;59.41;101428.25;4427764;32;20305;-85
2022/03/11 09:39:31;;;;;;;;;;;;;;;3.91;59.41;101419.44;4440440;32;19993;-85
2022/03/11 09:41:56;;;;;;;;;;;;;;;4.24;59.42;101426.97;4439981;32;20027;-85
2022/03/11 09:44:21;;;;;;;;;;;;;;;4.18;59.42;101421.72;4440300;32;19981;-85
2022/03/11 09:46:47;;;;;;;;;;;;;;;4.14;59.41;101417.34;4426653;32;35323;-86
2022/03/11 09:49:12;;;;;;;;;;;;;;;4.20;59.42;101410.59;4440436;32;20004;-85
2022/03/11 09:51:41;;;;;;;;;;;;;;;4.48;59.43;101404.25;4427667;32;20000;-84
2022/03/11 09:54:06;;;;;;;;;;;;;;;4.44;59.43;101405.06;4454676;32;20004;-85
2022/03/11 09:56:34;;;;;;;;;;;;;;;4.23;59.42;101413.22;4439768;32;28629;-85
2022/03/11 09:58:59;;;;;;;;;;;;;;;4.35;59.42;101404.00;4440345;32;20004;-85
2022/03/11 10:01:24;;;;;;;;;;;;;;;4.42;59.43;101408.44;4439491;32;29048;-85
2022/03/11 10:03:49;;;;;;;;;;;;;;;4.48;59.43;101398.25;4454433;32;19981;-85
2022/03/11 10:06:14;;;;;;;;;;;;;;;4.86;59.45;101401.53;4440181;32;19977;-86
2022/03/11 10:08:40;;;;;;;;;;;;;;;4.90;59.46;101393.88;4440139;32;20342;-85
2022/03/11 10:11:24;;;;;;;;;;;;;;;5.02;59.47;101393.22;4440186;32;20049;-86
2022/03/11 10:13:50;;;;;;;;;;;;;;;5.12;59.48;101391.66;4454462;32;19993;-85
2022/03/11 10:16:22;;;;;;;;;;;;;;;5.17;59.48;101388.28;4440339;32;19981;-86
2022/03/11 10:18:54;;;;;;;;;;;;;;;5.36;59.48;101376.56;4427360;32;20046;-85
2022/03/11 10:21:20;;;;;;;;;;;;;;;5.67;59.50;101380.44;4440044;32;19993;-85
2022/03/11 10:23:49;;;;;;;;;;;;;;;5.61;59.51;101388.09;4440254;32;20670;-86
2022/03/11 10:26:28;;;;;;;;;;;;;;;5.28;59.48;101385.03;4426560;32;20019;-86
2022/03/11 10:28:57;;;;;;;;;;;;;;;5.49;59.49;101377.62;4440141;32;19993;-85
2022/03/11 10:31:28;;;;;;;;;;;;;;;5.64;59.50;101382.13;4454340;32;20064;-85
2022/03/11 10:34:09;;;;;;;;;;;;;;;5.67;59.50;101385.59;4427147;32;20326;-86
2022/03/11 10:36:35;;;;;;;;;;;;;;;5.85;59.52;101378.09;4440204;32;19989;-86
2022/03/11 10:39:16;;;;;;;;;;;;;;;5.98;59.53;101374.03;4439823;32;20056;-86
2022/03/11 10:41:41;;;;;;;;;;;;;;;6.05;59.53;101369.78;4427165;32;20001;-86
2022/03/11 10:44:09;;;;;;;;;;;;;;;6.08;59.53;101374.97;4439288;32;26139;-86
2022/03/11 10:46:34;;;;;;;;;;;;;;;6.22;59.54;101360.50;4454208;32;20049;-85
2022/03/11 10:48:59;;;;;;;;;;;;;;;6.33;59.54;101364.06;4440033;32;20343;-85
2022/03/11 10:51:25;;;;;;;;;;;;;;;6.38;59.55;101367.56;4427072;32;20004;-86
2022/03/11 10:53:50;;;;;;;;;;;;;;;6.50;59.55;101355.63;4440000;32;20028;-86
2022/03/11 10:56:23;;;;;;;;;;;;;;;6.36;59.55;101352.91;4439841;32;20368;-85
2022/03/11 10:58:49;;;;;;;;;;;;;;;6.25;59.53;101345.03;4453935;32;20031;-85
2022/03/11 11:01:14;;;;;;;;;;;;;;;6.38;59.54;101346.88;4439210;32;29149;-85
2022/03/11 11:03:39;;;;;;;;;;;;;;;6.36;59.55;101334.78;4439834;32;20232;-85
2022/03/11 11:06:05;;;;;;;;;;;;;;;6.35;59.55;101335.63;4426920;32;19996;-85
2022/03/11 11:08:30;;;;;;;;;;;;;;;6.19;59.53;101338.94;4439783;32;20228;-86
2022/03/11 11:10:55;;;;;;;;;;;;;;;6.23;59.54;101332.94;4426776;32;20036;-85
2022/03/11 11:13:20;;;;;;;;;;;;;;;6.23;59.54;101331.22;4439337;32;23162;-85
2022/03/11 11:15:45;;;;;;;;;;;;;;;6.33;59.54;101337.34;4453852;32;20005;-85
2022/03/11 11:18:12;;;;;;;;;;;;;;;6.53;59.55;101320.31;4439307;32;20332;-85
2022/03/11 11:20:40;;;;;;;;;;;;;;;6.72;59.57;101322.22;4426771;32;20000;-85
2022/03/11 11:23:06;;;;;;;;;;;;;;;6.58;59.56;101328.13;4439436;32;19973;-85
2022/03/11 11:25:32;;;;;;;;;;;;;;;6.33;59.54;101324.41;4439657;32;19993;-85
2022/03/11 11:27:57;;;;;;;;;;;;;;;6.36;59.55;101307.22;4426599;32;20011;-86
2022/03/11 11:30:23;;;;;;;;;;;;;;;6.56;59.55;101306.53;4426075;32;23739;-85
2022/03/11 11:32:49;;;;;;;;;;;;;;;6.84;59.57;101302.47;4439352;32;19983;-85
2022/03/11 11:35:25;;;;;;;;;;;;;;;6.69;59.57;101303.22;4439307;32;19992;-85
2022/03/11 11:37:50;;;;;;;;;;;;;;;6.86;59.58;101298.16;4439553;32;20027;-85
2022/03/11 11:40:21;;;;;;;;;;;;;;;6.99;59.59;101292.25;4428355;32;20024;-86
2022/03/11 11:43:07;;;;;;;;;;;;;;;6.93;59.58;101290.47;4455565;32;20266;-85
2022/03/11 11:45:39;;;;;;;;;;;;;;;6.85;59.58;101294.72;4414812;32;19989;-86
2022/03/11 11:48:04;;;;;;;;;;;;;;;6.85;59.58;101286.06;4425733;32;19994;-85
2022/03/11 11:50:35;;;;;;;;;;;;;;;6.70;59.56;101285.13;4425528;32;20232;-86
2022/03/11 11:53:00;;;;;;;;;;;;;;;6.61;59.57;101281.56;4438736;32;19986;-86
2022/03/11 11:55:25;;;;;;;;;;;;;;;6.79;59.58;101281.72;4439340;32;27278;-85
2022/03/11 11:57:52;;;;;;;;;;;;;;;6.74;59.57;101273.94;4438659;32;20037;-85
2022/03/11 12:00:26;;;;;;;;;;;;;;;6.89;59.58;101269.75;4426059;32;20436;-85
2022/03/11 12:02:52;;;;;;;;;;;;;;;6.96;59.58;101268.91;4439910;32;19996;-85
2022/03/11 12:05:49;;;;;;;;;;;;;;;6.89;59.58;101264.56;4439859;32;20001;-85
2022/03/11 12:08:33;;;;;;;;;;;;;;;7.24;59.59;101259.59;4392024;32;20008;-85
2022/03/11 12:10:58;;;;;;;;;;;;;;;7.38;59.60;101256.25;4439731;32;19981;-86
2022/03/11 12:13:30;;;;;;;;;;;;;;;7.44;59.61;101250.22;4438512;32;19997;-86
2022/03/11 12:15:55;;;;;;;;;;;;;;;7.74;59.62;101246.87;4438543;32;20027;-85
2022/03/11 12:18:34;;;;;;;;;;;;;;;7.76;59.64;101247.75;4438329;32;20013;-85
2022/03/11 12:20:59;;;;;;;;;;;;;;;7.73;59.63;101246.87;4438541;32;19997;-86
2022/03/11 12:23:24;;;;;;;;;;;;;;;7.96;59.65;101242.63;4438460;32;19988;-86
2022/03/11 12:25:54;;;;;;;;;;;;;;;7.84;59.64;101247.78;4437937;32;19990;-86
2022/03/11 12:28:35;;;;;;;;;;;;;;;8.08;59.65;101240.06;4438315;32;19997;-85
2022/03/11 12:31:09;;;;;;;;;;;;;;;8.25;59.65;101233.16;4425579;32;20009;-85
2022/03/11 12:33:35;;;;;;;;;;;;;;;8.19;59.65;101238.34;4425438;32;19982;-85
2022/03/11 12:36:01;;;;;;;;;;;;;;;8.02;59.65;101227.06;4438345;32;20317;-85
2022/03/11 12:38:27;;;;;;;;;;;;;;;7.99;59.65;101230.53;4438260;32;19997;-86